VHWZY YDPO-YWYY

Flight info

Callsign VHWZY
Flight time 0h 18m
Altitude 6000
Route DPOWG
Aircraft C208/L-SDFGR/C

Departure

Time 2026-04-25 18:17
Airport Devonport Airport (YDPO)

Arrival

Time 2026-04-25 18:35
Airport Wynyard Airport (YWYY)
Time Latitude Longitude Altitude Speed Heading
2026-04-25 18:00 -41.17237 146.43048 38 ft 0 kts 65°
2026-04-25 18:03 -41.17240 146.43032 37 ft 2 kts 94°
2026-04-25 18:03 -41.17232 146.43014 37 ft 2 kts 144°
2026-04-25 18:03 -41.17224 146.43008 37 ft 1 kts 154°
2026-04-25 18:04 -41.17223 146.43008 37 ft 0 kts 154°
2026-04-25 18:08 -41.17234 146.43015 36 ft 6 kts 153°
2026-04-25 18:08 -41.17256 146.43087 37 ft 2 kts 62°
2026-04-25 18:09 -41.17242 146.43105 38 ft 8 kts 11°
2026-04-25 18:09 -41.17143 146.43052 36 ft 22 kts 336°
2026-04-25 18:09 -41.17001 146.42969 32 ft 20 kts 336°
2026-04-25 18:09 -41.16986 146.42960 32 ft 0 kts 336°
2026-04-25 18:10 -41.16959 146.42942 31 ft 10 kts 316°
2026-04-25 18:10 -41.16978 146.42803 29 ft 21 kts 261°
2026-04-25 18:10 -41.16994 146.42677 28 ft 12 kts 320°
2026-04-25 18:10 -41.16916 146.42650 28 ft 0 kts 345°
2026-04-25 18:14 -41.16914 146.42650 28 ft 0 kts 347°
2026-04-25 18:14 -41.16909 146.42648 28 ft 5 kts 347°
2026-04-25 18:14 -41.16848 146.42600 29 ft 17 kts 276°
2026-04-25 18:14 -41.16879 146.42403 28 ft 27 kts 256°
2026-04-25 18:15 -41.16931 146.42120 28 ft 35 kts 255°
2026-04-25 18:15 -41.16959 146.41959 27 ft 3 kts 77°
2026-04-25 18:15 -41.16956 146.41994 26 ft 0 kts 75°
2026-04-25 18:16 -41.16938 146.42088 28 ft 32 kts 76°
2026-04-25 18:16 -41.16847 146.42579 29 ft 75 kts 76°
2026-04-25 18:16 -41.16565 146.44121 411 ft 86 kts 101°
2026-04-25 18:17 -41.16964 146.44686 616 ft 92 kts 165°
2026-04-25 18:17 -41.17591 146.44435 778 ft 105 kts 230°
2026-04-25 18:17 -41.17875 146.43496 959 ft 115 kts 256°
2026-04-25 18:17 -41.17983 146.42432 1135 ft 122 kts 275°
2026-04-25 18:18 -41.17859 146.41358 1461 ft 113 kts 291°
2026-04-25 18:18 -41.17629 146.40379 1816 ft 108 kts 294°
2026-04-25 18:18 -41.17126 146.39640 2066 ft 112 kts 321°
2026-04-25 18:18 -41.16669 146.38807 2282 ft 114 kts 295°
2026-04-25 18:19 -41.16490 146.37781 2505 ft 114 kts 288°
2026-04-25 18:19 -41.16343 146.36744 2717 ft 115 kts 286°
2026-04-25 18:19 -41.16218 146.35687 2928 ft 117 kts 286°
2026-04-25 18:19 -41.16097 146.34603 3143 ft 121 kts 285°
2026-04-25 18:20 -41.15981 146.33487 3343 ft 122 kts 285°
2026-04-25 18:20 -41.15870 146.32373 3547 ft 122 kts 284°
2026-04-25 18:20 -41.15757 146.31255 3754 ft 124 kts 284°
2026-04-25 18:20 -41.15639 146.30112 3943 ft 124 kts 284°
2026-04-25 18:21 -41.15528 146.28996 4139 ft 121 kts 284°
2026-04-25 18:21 -41.15417 146.27903 4336 ft 119 kts 284°
2026-04-25 18:21 -41.15307 146.26823 4530 ft 117 kts 284°
2026-04-25 18:21 -41.15196 146.25752 4735 ft 118 kts 284°
2026-04-25 18:22 -41.15086 146.24672 4933 ft 118 kts 284°
2026-04-25 18:22 -41.15015 146.23963 5063 ft 117 kts 284°
2026-04-25 18:22 -41.14871 146.22549 5320 ft 114 kts 284°
2026-04-25 18:22 -41.14764 146.21508 5514 ft 113 kts 284°
2026-04-25 18:23 -41.14659 146.20476 5704 ft 113 kts 284°
2026-04-25 18:23 -41.14553 146.19448 5904 ft 112 kts 284°
2026-04-25 18:23 -41.14443 146.18401 5997 ft 120 kts 284°
2026-04-25 18:23 -41.14321 146.17255 6007 ft 130 kts 283°
2026-04-25 18:24 -41.14193 146.16031 6008 ft 137 kts 283°
2026-04-25 18:24 -41.14027 146.14756 6005 ft 141 kts 293°
2026-04-25 18:24 -41.13402 146.13794 6009 ft 143 kts 327°
2026-04-25 18:24 -41.12503 146.13205 6000 ft 144 kts 330°
2026-04-25 18:25 -41.11615 146.12580 5996 ft 145 kts 329°
2026-04-25 18:25 -41.10730 146.11940 6003 ft 145 kts 328°
2026-04-25 18:25 -41.09843 146.11295 5999 ft 146 kts 328°
2026-04-25 18:25 -41.08958 146.10644 6003 ft 146 kts 329°
2026-04-25 18:26 -41.08067 146.09992 6000 ft 146 kts 327°
2026-04-25 18:26 -41.07193 146.09321 5999 ft 146 kts 327°
2026-04-25 18:26 -41.06304 146.08678 5998 ft 146 kts 328°
2026-04-25 18:26 -41.05411 146.08029 6000 ft 146 kts 328°
2026-04-25 18:27 -41.04524 146.07377 5997 ft 146 kts 327°
2026-04-25 18:27 -41.03829 146.06437 5998 ft 145 kts 297°
2026-04-25 18:27 -41.03636 146.05112 6000 ft 148 kts 279°
2026-04-25 18:27 -41.03517 146.03758 5998 ft 148 kts 283°
2026-04-25 18:28 -41.03361 146.02414 5996 ft 148 kts 283°
2026-04-25 18:28 -41.03196 146.01067 5998 ft 148 kts 284°
2026-04-25 18:28 -41.03029 145.99716 6001 ft 149 kts 284°
2026-04-25 18:29 -41.02677 145.97007 5985 ft 150 kts 284°
2026-04-25 18:29 -41.02504 145.95625 5814 ft 158 kts 284°
2026-04-25 18:30 -41.02076 145.91900 5018 ft 115 kts 285°
2026-04-25 18:30 -41.01952 145.90874 4714 ft 111 kts 286°
2026-04-25 18:30 -41.01828 145.89880 4424 ft 108 kts 287°
2026-04-25 18:30 -41.01707 145.88903 4137 ft 107 kts 287°
2026-04-25 18:31 -41.01588 145.87936 3862 ft 106 kts 287°
2026-04-25 18:31 -41.01469 145.86977 3589 ft 105 kts 287°
2026-04-25 18:31 -41.01352 145.86026 3315 ft 104 kts 287°
2026-04-25 18:31 -41.01234 145.85077 3040 ft 105 kts 287°
2026-04-25 18:32 -41.01117 145.84125 2766 ft 105 kts 288°
2026-04-25 18:32 -41.01001 145.83176 2487 ft 106 kts 287°
2026-04-25 18:32 -41.00879 145.82193 2201 ft 109 kts 287°
2026-04-25 18:32 -41.00758 145.81211 1956 ft 107 kts 286°
2026-04-25 18:33 -41.00637 145.80235 1695 ft 109 kts 285°
2026-04-25 18:33 -41.00516 145.79236 1411 ft 111 kts 283°
2026-04-25 18:33 -41.00397 145.78272 1151 ft 103 kts 281°
2026-04-25 18:33 -41.00294 145.77328 860 ft 105 kts 278°
2026-04-25 18:34 -41.00178 145.76440 635 ft 92 kts 277°
2026-04-25 18:34 -41.00084 145.75624 389 ft 87 kts 275°
2026-04-25 18:34 -40.99981 145.74828 165 ft 90 kts 277°
2026-04-25 18:34 -40.99879 145.74012 62 ft 85 kts 277°
2026-04-25 18:35 -40.99797 145.73368 62 ft 52 kts 281°
2026-04-25 18:35 -40.99749 145.72983 69 ft 38 kts 279°
2026-04-25 18:35 -40.99709 145.72661 73 ft 25 kts 280°
2026-04-25 18:35 -40.99653 145.72522 72 ft 19 kts
2026-04-25 18:36 -40.99602 145.72530 72 ft 0 kts
2026-04-25 18:36 -40.99601 145.72530 72 ft 2 kts
2026-04-25 18:36 -40.99529 145.72542 68 ft 18 kts
2026-04-25 18:36 -40.99405 145.72542 68 ft 15 kts 313°
2026-04-25 18:37 -40.99373 145.72546 65 ft 0 kts 62°